createdAt,value
2018-09-10T00:00:13.113Z,79.01
2018-09-10T00:02:41.854Z,79.04
2018-09-10T00:05:10.552Z,79.40
2018-09-10T00:07:39.274Z,79.61
2018-09-10T00:10:08.012Z,79.92
2018-09-10T00:12:36.752Z,78.92
2018-09-10T00:15:06.149Z,79.08
2018-09-10T00:17:34.864Z,78.74
2018-09-10T00:20:03.604Z,78.65
2018-09-10T00:22:32.283Z,78.51
2018-09-10T00:25:01.094Z,78.52
2018-09-10T00:27:29.767Z,78.51
2018-09-10T00:29:58.439Z,78.62
2018-09-10T00:32:27.100Z,78.76
2018-09-10T00:34:55.814Z,78.67
2018-09-10T00:37:24.485Z,78.79
2018-09-10T00:39:53.168Z,78.87
2018-09-10T00:42:21.853Z,79.20
2018-09-10T00:44:50.571Z,79.18
2018-09-10T00:47:19.261Z,79.31
2018-09-10T00:49:47.967Z,79.43
2018-09-10T00:52:16.679Z,79.27
2018-09-10T00:54:45.372Z,79.28
2018-09-10T00:57:14.075Z,79.51
2018-09-10T00:59:42.779Z,79.33
2018-09-10T01:02:11.459Z,79.42
2018-09-10T01:04:40.154Z,79.67
2018-09-10T01:07:08.883Z,80.15
2018-09-10T01:09:37.560Z,80.42
2018-09-10T01:12:06.272Z,80.68
2018-09-10T01:14:34.973Z,81.16
2018-09-10T01:17:03.700Z,81.49
2018-09-10T01:19:32.458Z,81.93
2018-09-10T01:22:01.151Z,82.18
2018-09-10T01:24:29.839Z,82.27
2018-09-10T01:26:58.533Z,82.29
2018-09-10T01:29:27.248Z,81.66
2018-09-10T01:31:55.991Z,81.11
2018-09-10T01:34:29.839Z,81.12
2018-09-10T01:36:58.547Z,80.59
2018-09-10T01:39:27.277Z,80.85
2018-09-10T01:41:55.940Z,81.05
2018-09-10T01:44:24.759Z,81.14
2018-09-10T01:46:53.447Z,81.07
2018-09-10T01:49:22.205Z,81.15
2018-09-10T01:51:50.958Z,81.30
2018-09-10T01:54:19.652Z,81.14
2018-09-10T01:56:48.352Z,80.49
2018-09-10T01:59:17.692Z,80.64
2018-09-10T02:01:46.448Z,80.62
2018-09-10T02:04:15.116Z,80.43
2018-09-10T02:06:43.800Z,79.95
2018-09-10T02:09:12.505Z,79.89
2018-09-10T02:11:41.183Z,79.45
2018-09-10T02:14:09.851Z,79.77
2018-09-10T02:16:38.533Z,80.03
2018-09-10T02:19:07.325Z,80.19
2018-09-10T02:21:36.024Z,80.04
2018-09-10T02:24:04.756Z,79.73
2018-09-10T02:26:33.448Z,79.92
2018-09-10T02:29:02.186Z,79.49
2018-09-10T02:31:30.846Z,79.29
2018-09-10T02:33:59.560Z,79.17
2018-09-10T02:36:28.238Z,79.26
2018-09-10T02:38:56.945Z,79.08
2018-09-10T02:41:26.131Z,79.10
2018-09-10T02:43:54.807Z,79.36
2018-09-10T02:46:23.531Z,79.21
2018-09-10T02:48:52.215Z,78.57
2018-09-10T02:51:20.893Z,78.11
2018-09-10T02:53:49.548Z,78.06
2018-09-10T02:56:18.206Z,78.06
2018-09-10T02:58:46.869Z,78.22
2018-09-10T03:01:15.575Z,78.15
2018-09-10T03:03:44.251Z,78.31
2018-09-10T03:06:12.948Z,78.28
2018-09-10T03:08:41.672Z,78.38
2018-09-10T03:11:10.408Z,78.78
2018-09-10T03:13:39.060Z,78.87
2018-09-10T03:16:07.725Z,79.29
2018-09-10T03:18:36.416Z,79.19
2018-09-10T03:21:05.049Z,79.48
2018-09-10T03:23:33.830Z,79.55
2018-09-10T03:26:02.489Z,79.60
2018-09-10T03:28:31.140Z,79.55
2018-09-10T03:31:00.794Z,79.37
2018-09-10T03:33:30.432Z,79.25
2018-09-10T03:35:59.087Z,79.24
2018-09-10T03:38:27.831Z,79.55
2018-09-10T03:40:56.503Z,79.78
2018-09-10T03:43:25.291Z,80.02
2018-09-10T03:45:53.975Z,80.53
2018-09-10T03:48:22.680Z,80.71
2018-09-10T03:50:51.392Z,81.11
2018-09-10T03:53:20.096Z,81.54
2018-09-10T03:55:48.809Z,81.42
2018-09-10T03:58:17.509Z,81.78
2018-09-10T04:00:46.228Z,81.86
2018-09-10T04:03:14.895Z,82.30
2018-09-10T04:05:43.597Z,81.96
2018-09-10T04:08:12.287Z,82.02
2018-09-10T04:10:41.573Z,82.20
2018-09-10T04:13:10.342Z,81.98
2018-09-10T04:15:39.053Z,82.11
2018-09-10T04:18:07.755Z,81.93
2018-09-10T04:20:36.431Z,82.01
2018-09-10T04:23:05.109Z,82.04
2018-09-10T04:25:33.800Z,81.56
2018-09-10T04:28:02.489Z,81.59
2018-09-10T04:30:31.192Z,81.34
2018-09-10T04:32:59.895Z,80.97
2018-09-10T04:35:28.568Z,80.32
2018-09-10T04:37:58.004Z,80.13
2018-09-10T04:40:26.772Z,79.93
2018-09-10T04:42:55.430Z,79.62
2018-09-10T04:45:24.099Z,79.22
2018-09-10T04:47:52.777Z,79.04
2018-09-10T04:50:22.101Z,78.76
2018-09-10T04:52:50.785Z,78.89
2018-09-10T04:55:19.541Z,78.90
2018-09-10T04:57:48.329Z,79.01
2018-09-10T05:00:17.676Z,78.91
2018-09-10T05:02:46.380Z,78.94
2018-09-10T05:05:15.093Z,78.62
2018-09-10T05:07:44.739Z,78.41
2018-09-10T05:10:13.444Z,78.19
2018-09-10T05:12:42.117Z,78.38
2018-09-10T05:15:10.904Z,78.27
2018-09-10T05:17:39.631Z,78.42
2018-09-10T05:20:08.403Z,78.39
2018-09-10T05:22:37.075Z,78.33
2018-09-10T05:25:05.868Z,78.56
2018-09-10T05:27:34.588Z,78.67
2018-09-10T05:30:03.308Z,78.71
2018-09-10T05:32:32.004Z,79.01
2018-09-10T05:35:00.688Z,79.25
2018-09-10T05:37:29.385Z,79.51
2018-09-10T05:39:58.083Z,79.61
2018-09-10T05:42:27.489Z,80.12
2018-09-10T05:44:56.165Z,80.68
2018-09-10T05:47:24.994Z,80.80
2018-09-10T05:49:53.689Z,81.07
2018-09-10T05:52:22.414Z,81.35
2018-09-10T05:54:51.128Z,81.57
2018-09-10T05:57:21.508Z,81.83
2018-09-10T05:59:50.199Z,81.86
2018-09-10T06:02:19.760Z,81.87
2018-09-10T06:04:48.932Z,82.07
2018-09-10T06:07:17.668Z,82.38
2018-09-10T06:09:46.353Z,82.40
2018-09-10T06:12:15.041Z,82.81
2018-09-10T06:14:43.741Z,82.93
2018-09-10T06:17:12.435Z,83.29
2018-09-10T06:19:41.094Z,83.65
2018-09-10T06:22:09.765Z,83.67
2018-09-10T06:24:38.420Z,84.17
2018-09-10T06:27:07.089Z,83.92
2018-09-10T06:29:35.843Z,84.01
2018-09-10T06:32:04.834Z,83.82
2018-09-10T06:34:33.564Z,83.99
2018-09-10T06:37:02.374Z,84.32
2018-09-10T06:39:36.875Z,84.44
2018-09-10T06:42:44.002Z,84.44
2018-09-10T06:45:21.052Z,84.53
2018-09-10T06:48:03.500Z,84.79
2018-09-10T06:50:42.315Z,84.81
2018-09-10T06:53:18.005Z,84.97
2018-09-10T06:55:49.831Z,84.76
2018-09-10T06:58:21.752Z,84.68
2018-09-10T07:00:56.863Z,84.44
2018-09-10T07:03:34.694Z,84.50
2018-09-10T07:06:30.589Z,84.48
2018-09-10T07:09:11.340Z,84.35
2018-09-10T07:11:51.392Z,84.44
2018-09-10T07:14:22.569Z,84.31
2018-09-10T07:17:00.368Z,84.50
2018-09-10T07:19:35.379Z,84.37
2018-09-10T07:22:18.605Z,84.17
2018-09-10T07:24:58.233Z,84.15
2018-09-10T07:27:26.912Z,84.10
2018-09-10T07:29:55.603Z,84.02
2018-09-10T07:32:24.332Z,84.20
2018-09-10T07:34:53.036Z,83.78
2018-09-10T07:37:21.800Z,84.13
2018-09-10T07:39:50.508Z,83.90
2018-09-10T07:42:19.201Z,83.89
2018-09-10T07:44:47.880Z,83.95
2018-09-10T07:47:16.628Z,83.97
2018-09-10T07:49:45.418Z,83.99
2018-09-10T07:52:14.109Z,84.05
2018-09-10T07:54:42.894Z,83.94
2018-09-10T07:57:11.570Z,83.56
2018-09-10T07:59:40.281Z,83.72
2018-09-10T08:02:08.961Z,83.69
2018-09-10T08:04:37.655Z,83.67
2018-09-10T08:07:06.469Z,83.78
2018-09-10T08:09:35.187Z,83.55
2018-09-10T08:12:03.925Z,83.60
2018-09-10T08:14:32.660Z,83.63
2018-09-10T08:17:01.350Z,83.46
2018-09-10T08:19:30.074Z,83.56
2018-09-10T08:21:58.800Z,83.94
2018-09-10T08:24:27.616Z,83.62
2018-09-10T08:26:56.351Z,83.05
2018-09-10T08:29:25.112Z,82.23
2018-09-10T08:31:53.834Z,80.18
2018-09-10T08:34:22.552Z,80.55
2018-09-10T08:36:51.395Z,80.15
2018-09-10T08:39:20.084Z,80.40
2018-09-10T08:41:48.817Z,79.42
2018-09-10T08:44:17.521Z,78.98
2018-09-10T08:46:46.206Z,78.57
2018-09-10T08:49:14.876Z,77.60
2018-09-10T08:51:43.556Z,77.55
2018-09-10T08:54:12.314Z,76.86
2018-09-10T08:56:41.022Z,77.01
2018-09-10T08:59:09.708Z,76.83
2018-09-10T09:01:38.408Z,76.96
2018-09-10T09:04:07.356Z,76.59
2018-09-10T09:06:36.028Z,76.81
2018-09-10T09:09:05.460Z,76.60
2018-09-10T09:11:34.180Z,75.69
2018-09-10T09:14:02.861Z,75.49
2018-09-10T09:16:31.569Z,75.43
2018-09-10T09:19:00.275Z,75.46
2018-09-10T09:21:29.022Z,74.74
2018-09-10T09:23:57.955Z,74.51
2018-09-10T09:26:26.659Z,73.44
2018-09-10T09:28:55.385Z,72.32
2018-09-10T09:31:24.112Z,71.64
2018-09-10T09:33:52.859Z,71.55
2018-09-10T09:36:26.580Z,71.27
2018-09-10T09:39:00.255Z,71.21
2018-09-10T09:41:34.060Z,71.61
2018-09-10T09:44:07.731Z,71.20
2018-09-10T09:46:36.437Z,71.86
2018-09-10T09:49:05.215Z,71.97
2018-09-10T09:51:33.940Z,70.94
2018-09-10T09:54:02.624Z,70.67
2018-09-10T09:56:31.471Z,70.88
2018-09-10T09:59:00.171Z,70.71
2018-09-10T10:01:34.111Z,70.89
2018-09-10T10:04:08.146Z,70.27
2018-09-10T10:06:37.150Z,69.16
2018-09-10T10:09:09.261Z,70.00
2018-09-10T10:11:38.286Z,69.56
2018-09-10T10:14:07.723Z,69.36
2018-09-10T10:16:36.455Z,68.49
2018-09-10T10:19:05.221Z,68.94
2018-09-10T10:21:33.907Z,68.26
2018-09-10T10:24:02.605Z,66.83
2018-09-10T10:26:31.481Z,67.28
2018-09-10T10:29:00.218Z,67.30
2018-09-10T10:31:28.955Z,67.39
2018-09-10T10:33:57.716Z,67.73
2018-09-10T10:36:26.459Z,68.47
2018-09-10T10:38:55.167Z,68.66
2018-09-10T10:41:23.881Z,69.04
2018-09-10T10:43:52.687Z,68.85
2018-09-10T10:46:21.399Z,68.59
2018-09-10T10:48:50.083Z,68.42
2018-09-10T10:51:18.786Z,66.70
2018-09-10T10:53:47.505Z,65.61
2018-09-10T10:56:16.175Z,65.23
2018-09-10T10:58:44.883Z,65.35
2018-09-10T11:01:13.596Z,65.00
2018-09-10T11:03:42.340Z,65.48
2018-09-10T11:06:11.111Z,64.96
2018-09-10T11:08:39.854Z,65.46
2018-09-10T11:11:08.605Z,66.08
2018-09-10T11:13:37.316Z,65.67
2018-09-10T11:16:06.045Z,65.75
2018-09-10T11:18:34.791Z,65.48
2018-09-10T11:21:03.566Z,66.18
2018-09-10T11:23:32.246Z,66.24
2018-09-10T11:26:01.000Z,66.08
2018-09-10T11:28:29.740Z,65.25
2018-09-10T11:30:58.467Z,64.48
2018-09-10T11:33:27.216Z,65.06
2018-09-10T11:35:55.930Z,64.37
2018-09-10T11:38:24.657Z,63.36
2018-09-10T11:40:53.401Z,63.90
2018-09-10T11:43:22.235Z,62.37
2018-09-10T11:45:51.051Z,62.79
2018-09-10T11:48:19.725Z,61.59
2018-09-10T11:50:48.461Z,62.02
2018-09-10T11:53:17.202Z,61.97
2018-09-10T11:55:45.977Z,61.92
2018-09-10T11:58:14.700Z,61.68
2018-09-10T12:00:43.452Z,62.10
2018-09-10T12:03:12.216Z,60.32
2018-09-10T12:05:40.918Z,60.11
2018-09-10T12:08:09.685Z,60.31
2018-09-10T12:10:38.377Z,59.85
2018-09-10T12:13:07.159Z,59.54
2018-09-10T12:15:35.885Z,58.76
2018-09-10T12:18:04.586Z,58.84
2018-09-10T12:20:33.301Z,58.93
2018-09-10T12:23:02.064Z,58.87
2018-09-10T12:25:30.788Z,59.46
2018-09-10T12:27:59.480Z,60.27
2018-09-10T12:30:28.206Z,60.87
2018-09-10T12:32:56.928Z,61.53
2018-09-10T12:35:25.733Z,60.72
2018-09-10T12:37:54.504Z,61.81
2018-09-10T12:40:23.190Z,61.99
2018-09-10T12:42:51.893Z,61.28
2018-09-10T12:45:20.619Z,61.93
2018-09-10T12:47:49.318Z,61.14
2018-09-10T12:50:18.003Z,61.12
2018-09-10T12:52:46.689Z,60.09
2018-09-10T12:55:15.432Z,59.72
2018-09-10T12:57:44.186Z,59.89
2018-09-10T13:00:13.023Z,59.38
2018-09-10T13:02:41.808Z,59.28
2018-09-10T13:05:10.520Z,59.08
2018-09-10T13:07:39.301Z,58.08
2018-09-10T13:10:08.024Z,58.22
2018-09-10T13:12:36.709Z,57.95
2018-09-10T13:15:05.476Z,58.25
2018-09-10T13:17:34.148Z,57.93
2018-09-10T13:20:02.837Z,57.80
2018-09-10T13:22:31.565Z,59.36
2018-09-10T13:25:00.258Z,59.04
2018-09-10T13:27:28.965Z,58.52
2018-09-10T13:29:57.688Z,58.81
2018-09-10T13:32:26.474Z,58.21
2018-09-10T13:34:55.174Z,58.21
2018-09-10T13:37:23.936Z,58.30
2018-09-10T13:39:52.596Z,59.06
2018-09-10T13:42:21.302Z,59.48
2018-09-10T13:44:49.997Z,60.48
2018-09-10T13:47:20.214Z,59.46
2018-09-10T13:49:48.965Z,59.92
2018-09-10T13:52:17.726Z,60.57
2018-09-10T13:54:46.436Z,61.02
2018-09-10T13:57:15.121Z,60.95
2018-09-10T13:59:43.901Z,61.47
2018-09-10T14:02:12.567Z,61.33
2018-09-10T14:04:41.294Z,61.65
2018-09-10T14:07:10.101Z,62.35
2018-09-10T14:09:38.794Z,62.21
2018-09-10T14:12:07.597Z,62.48
2018-09-10T14:14:36.285Z,62.88
2018-09-10T14:17:04.996Z,62.72
2018-09-10T14:19:33.693Z,62.43
2018-09-10T14:22:02.413Z,63.19
2018-09-10T14:24:31.094Z,63.00
2018-09-10T14:26:59.851Z,63.43
2018-09-10T14:29:28.559Z,63.32
2018-09-10T14:31:57.332Z,63.55
2018-09-10T14:34:26.127Z,64.32
2018-09-10T14:36:54.888Z,65.09
2018-09-10T14:39:23.728Z,65.06
2018-09-10T14:41:52.492Z,65.82
2018-09-10T14:44:21.213Z,66.79
2018-09-10T14:46:49.982Z,67.17
2018-09-10T14:49:18.691Z,67.29
2018-09-10T14:51:47.393Z,68.00
2018-09-10T14:54:16.084Z,68.19
2018-09-10T14:56:44.766Z,68.95
2018-09-10T14:59:13.449Z,68.89
2018-09-10T15:01:42.176Z,68.90
2018-09-10T15:04:10.997Z,68.84
2018-09-10T15:06:39.686Z,68.96
2018-09-10T15:09:09.173Z,69.84
2018-09-10T15:11:38.066Z,70.19
2018-09-10T15:14:06.871Z,70.43
2018-09-10T15:16:36.567Z,70.87
2018-09-10T15:19:05.570Z,70.97
2018-09-10T15:21:34.391Z,71.31
2018-09-10T15:24:03.167Z,72.24
2018-09-10T15:26:31.967Z,72.41
2018-09-10T15:29:00.804Z,73.00
2018-09-10T15:31:29.604Z,73.22
2018-09-10T15:33:58.482Z,73.66
2018-09-10T15:36:28.059Z,74.10
2018-09-10T15:38:56.941Z,74.32
2018-09-10T15:41:26.170Z,74.20
2018-09-10T15:43:55.048Z,74.81
2018-09-10T15:46:23.868Z,75.04
2018-09-10T15:48:52.784Z,75.64
2018-09-10T15:51:21.857Z,76.03
2018-09-10T15:53:50.560Z,75.91
2018-09-10T15:56:19.320Z,75.60
2018-09-10T15:58:48.224Z,76.03
2018-09-10T16:01:17.073Z,75.92
2018-09-10T16:03:45.932Z,76.05
2018-09-10T16:06:14.680Z,76.53
2018-09-10T16:08:43.555Z,76.43
2018-09-10T16:11:12.265Z,76.85
2018-09-10T16:13:40.971Z,76.70
2018-09-10T16:16:09.710Z,76.79
2018-09-10T16:18:38.385Z,77.47
2018-09-10T16:21:07.056Z,77.70
2018-09-10T16:23:35.759Z,78.24
2018-09-10T16:26:04.564Z,78.40
2018-09-10T16:28:33.341Z,78.63
2018-09-10T16:31:02.268Z,79.17
2018-09-10T16:33:31.065Z,79.41
2018-09-10T16:35:59.789Z,79.49
2018-09-10T16:38:28.540Z,79.44
2018-09-10T16:40:57.350Z,79.77
2018-09-10T16:43:26.088Z,80.02
2018-09-10T16:45:54.851Z,79.88
2018-09-10T16:48:23.646Z,79.90
2018-09-10T16:50:52.457Z,80.15
2018-09-10T16:53:21.201Z,80.26
2018-09-10T16:55:49.899Z,80.70
2018-09-10T16:58:18.573Z,81.03
2018-09-10T17:00:47.343Z,81.19
2018-09-10T17:03:16.060Z,81.50
2018-09-10T17:05:44.822Z,82.23
2018-09-10T17:08:13.520Z,82.60
2018-09-10T17:10:42.371Z,83.40
2018-09-10T17:13:10.984Z,83.51
2018-09-10T17:15:39.827Z,83.84
2018-09-10T17:18:08.719Z,84.11
2018-09-10T17:20:37.441Z,84.41
2018-09-10T17:23:06.209Z,84.42
2018-09-10T17:25:34.992Z,84.39
2018-09-10T17:28:03.709Z,84.71
2018-09-10T17:30:32.418Z,85.00
2018-09-10T17:33:01.179Z,85.09
2018-09-10T17:35:29.888Z,85.46
2018-09-10T17:37:58.621Z,85.63
2018-09-10T17:40:27.356Z,85.51
2018-09-10T17:42:56.084Z,85.78
2018-09-10T17:45:24.860Z,85.81
2018-09-10T17:47:53.671Z,86.13
2018-09-10T17:50:22.375Z,86.04
2018-09-10T17:52:51.139Z,86.34
2018-09-10T17:55:19.862Z,86.21
2018-09-10T17:57:48.610Z,86.53
2018-09-10T18:00:17.360Z,86.62
2018-09-10T18:02:46.109Z,86.98
2018-09-10T18:05:14.928Z,88.10
2018-09-10T18:07:43.800Z,89.03
2018-09-10T18:10:12.514Z,89.90
2018-09-10T18:12:41.256Z,90.88
2018-09-10T18:15:10.052Z,91.03
2018-09-10T18:17:38.729Z,91.68
2018-09-10T18:20:07.449Z,92.35
2018-09-10T18:22:36.383Z,92.94
2018-09-10T18:25:05.277Z,92.90
2018-09-10T18:27:34.022Z,93.47
2018-09-10T18:30:02.724Z,94.19
2018-09-10T18:32:31.437Z,93.98
2018-09-10T18:35:00.123Z,93.86
2018-09-10T18:37:29.181Z,93.79
2018-09-10T18:39:57.904Z,94.25
2018-09-10T18:42:26.648Z,93.71
2018-09-10T18:44:55.301Z,93.77
2018-09-10T18:47:23.993Z,93.72
2018-09-10T18:49:52.680Z,94.16
2018-09-10T18:52:21.328Z,94.02
2018-09-10T18:54:50.013Z,93.93
2018-09-10T18:57:18.736Z,93.79
2018-09-10T18:59:47.464Z,93.72
2018-09-10T19:02:16.180Z,93.65
2018-09-10T19:04:44.870Z,93.61
2018-09-10T19:07:13.576Z,93.89
2018-09-10T19:09:42.321Z,93.74
2018-09-10T19:12:10.996Z,93.74
2018-09-10T19:14:39.760Z,93.75
2018-09-10T19:17:08.520Z,93.27
2018-09-10T19:19:37.220Z,92.91
2018-09-10T19:22:05.901Z,92.81
2018-09-10T19:24:34.606Z,92.60
2018-09-10T19:27:03.304Z,92.36
2018-09-10T19:29:31.972Z,92.11
2018-09-10T19:32:00.788Z,92.05
2018-09-10T19:34:29.563Z,91.79
2018-09-10T19:36:58.299Z,91.85
2018-09-10T19:39:26.969Z,91.87
2018-09-10T19:41:55.658Z,91.91
2018-09-10T19:44:24.375Z,91.92
2018-09-10T19:46:53.120Z,92.24
2018-09-10T19:49:21.795Z,92.30
2018-09-10T19:51:50.596Z,92.45
2018-09-10T19:54:19.420Z,92.45
2018-09-10T19:56:48.107Z,92.83
2018-09-10T19:59:16.828Z,92.94
2018-09-10T20:01:45.515Z,93.18
2018-09-10T20:04:14.201Z,93.22
2018-09-10T20:06:42.908Z,93.31
2018-09-10T20:09:12.155Z,93.24
2018-09-10T20:11:40.789Z,93.58
2018-09-10T20:14:09.699Z,93.60
2018-09-10T20:16:38.355Z,93.47
2018-09-10T20:19:07.415Z,93.74
2018-09-10T20:21:36.188Z,93.73
2018-09-10T20:24:04.899Z,93.88
2018-09-10T20:26:33.612Z,93.94
2018-09-10T20:29:02.348Z,94.02
2018-09-10T20:31:31.048Z,94.25
2018-09-10T20:34:04.896Z,94.61
2018-09-10T20:36:34.152Z,94.46
2018-09-10T20:39:03.072Z,94.43
2018-09-10T20:41:31.843Z,94.18
2018-09-10T20:44:00.564Z,94.24
2018-09-10T20:46:29.289Z,94.61
2018-09-10T20:48:58.009Z,94.51
2018-09-10T20:51:26.708Z,94.46
2018-09-10T20:53:55.477Z,94.49
2018-09-10T20:56:24.492Z,94.55
2018-09-10T20:58:53.199Z,94.50
2018-09-10T21:01:22.068Z,94.60
2018-09-10T21:03:52.060Z,94.71
2018-09-10T21:06:20.846Z,94.70
2018-09-10T21:08:49.548Z,94.67
2018-09-10T21:11:18.261Z,94.71
2018-09-10T21:13:46.940Z,94.70
2018-09-10T21:16:15.636Z,94.65
2018-09-10T21:18:44.321Z,94.77
2018-09-10T21:21:13.059Z,94.77
2018-09-10T21:23:41.739Z,94.83
2018-09-10T21:26:10.456Z,94.90
2018-09-10T21:28:39.164Z,94.82
2018-09-10T21:31:07.890Z,94.87
2018-09-10T21:33:36.619Z,94.87
2018-09-10T21:36:05.343Z,94.81
2018-09-10T21:38:34.008Z,94.67
2018-09-10T21:41:02.748Z,94.73
2018-09-10T21:43:31.501Z,94.67
2018-09-10T21:46:00.230Z,94.48
2018-09-10T21:48:28.920Z,94.63
2018-09-10T21:50:57.631Z,94.35
2018-09-10T21:53:26.336Z,94.54
2018-09-10T21:55:54.996Z,94.63
2018-09-10T21:58:23.668Z,94.51
2018-09-10T22:00:55.205Z,94.40
2018-09-10T22:03:23.955Z,94.23
2018-09-10T22:05:52.919Z,94.14
2018-09-10T22:08:21.628Z,94.39
2018-09-10T22:10:50.364Z,94.28
2018-09-10T22:13:19.066Z,94.23
2018-09-10T22:15:47.720Z,94.30
2018-09-10T22:18:16.371Z,94.34
2018-09-10T22:20:45.245Z,94.57
2018-09-10T22:23:13.943Z,94.56
2018-09-10T22:26:02.019Z,94.86
2018-09-10T22:28:30.676Z,94.61
2018-09-10T22:30:59.408Z,94.91
2018-09-10T22:33:28.137Z,94.67
2018-09-10T22:35:56.831Z,94.78
2018-09-10T22:38:25.552Z,94.50
2018-09-10T22:40:54.240Z,94.79
2018-09-10T22:43:22.984Z,94.59
2018-09-10T22:45:51.697Z,94.52
2018-09-10T22:48:20.380Z,94.54
2018-09-10T22:50:49.121Z,94.50
2018-09-10T22:53:17.831Z,94.47
2018-09-10T22:55:46.496Z,94.47
2018-09-10T22:58:15.183Z,94.72
2018-09-10T23:00:43.917Z,94.60
2018-09-10T23:03:12.823Z,94.89
2018-09-10T23:05:41.506Z,94.68
2018-09-10T23:08:10.219Z,95.04
2018-09-10T23:10:38.921Z,94.63
2018-09-10T23:13:07.978Z,94.68
2018-09-10T23:15:36.645Z,94.70
2018-09-10T23:18:05.334Z,95.05
2018-09-10T23:20:34.004Z,94.94
2018-09-10T23:23:02.697Z,95.35
2018-09-10T23:25:31.380Z,95.24
2018-09-10T23:28:00.072Z,95.29
2018-09-10T23:30:28.785Z,95.26
2018-09-10T23:32:57.500Z,95.56
2018-09-10T23:35:26.252Z,95.87
2018-09-10T23:37:54.919Z,96.00
2018-09-10T23:40:23.604Z,96.43
2018-09-10T23:42:52.285Z,96.17
2018-09-10T23:45:21.075Z,96.71
2018-09-10T23:47:49.801Z,96.66
2018-09-10T23:50:19.355Z,96.57
2018-09-10T23:52:48.060Z,96.56
2018-09-10T23:55:16.745Z,96.79
2018-09-10T23:57:45.411Z,96.61
